Terminal Aerodrome Forecast
Issued by NWS

Home | Current Version | Previous Version | Graphics & Text | Print | Product List | Glossary On
Versions: 1 2 3 4 5 6 7 8 9 10 11 12 13 14 15 16 17 18
000
FTUS43 KBIS 220500
TAFDIK
TAF
KDIK 220540Z 2206/2306 13009KT P6SM SCT200
     FM220800 14011KT P6SM BKN200
     FM221500 14019G25KT P6SM SCT130 BKN200
     FM221800 14023G28KT P6SM SCT080 BKN120
     FM222300 13024G32KT P6SM SCT120 BKN220=

USA.gov is the U.S. government's official web portal to all federal, state and local government web resources and services.